createdAt,value
2022-12-26T00:03:00.581Z,12.43
2022-12-26T00:08:19.325Z,12.43
2022-12-26T00:13:41.295Z,12.43
2022-12-26T00:18:57.702Z,12.43
2022-12-26T00:24:16.947Z,12.43
2022-12-26T00:29:36.507Z,12.43
2022-12-26T00:34:55.440Z,12.43
2022-12-26T00:40:14.554Z,12.43
2022-12-26T00:45:33.511Z,12.42
2022-12-26T00:50:52.720Z,12.42
2022-12-26T00:56:11.750Z,12.42
2022-12-26T01:01:31.089Z,12.42
2022-12-26T01:06:50.006Z,12.42
2022-12-26T01:12:09.693Z,12.42
2022-12-26T01:17:29.522Z,12.42
2022-12-26T01:22:48.811Z,12.42
2022-12-26T01:28:08.030Z,12.42
2022-12-26T01:33:27.396Z,12.42
2022-12-26T01:38:47.696Z,12.41
2022-12-26T01:44:06.136Z,12.41
2022-12-26T01:49:25.581Z,12.41
2022-12-26T01:54:45.247Z,12.42
2022-12-26T02:00:04.686Z,12.41
2022-12-26T02:05:23.741Z,12.41
2022-12-26T02:10:43.199Z,12.41
2022-12-26T02:16:03.013Z,12.41
2022-12-26T02:26:41.645Z,12.41
2022-12-26T02:32:00.778Z,12.41
2022-12-26T02:37:19.879Z,12.41
2022-12-26T02:42:38.769Z,12.41
2022-12-26T02:47:57.796Z,12.4
2022-12-26T02:53:16.534Z,12.4
2022-12-26T02:58:35.672Z,12.4
2022-12-26T03:03:55.115Z,12.41
2022-12-26T03:09:14.791Z,12.4
2022-12-26T03:14:33.968Z,12.4
2022-12-26T03:19:53.705Z,12.4
2022-12-26T03:25:12.958Z,12.4
2022-12-26T03:30:31.550Z,12.4
2022-12-26T03:35:50.281Z,12.4
2022-12-26T03:41:09.216Z,12.39
2022-12-26T03:46:28.651Z,12.4
2022-12-26T03:51:47.566Z,12.4
2022-12-26T04:02:27.576Z,12.39
2022-12-26T04:07:55.662Z,12.39
2022-12-26T04:13:06.167Z,12.39
2022-12-26T04:18:25.824Z,12.39
2022-12-26T04:23:45.398Z,12.4
2022-12-26T04:29:04.908Z,12.39
2022-12-26T04:34:24.379Z,12.39
2022-12-26T04:39:43.501Z,12.39
2022-12-26T04:45:02.425Z,12.39
2022-12-26T04:50:21.247Z,12.38
2022-12-26T04:55:39.973Z,12.38
2022-12-26T05:00:59.490Z,12.39
2022-12-26T05:06:17.788Z,12.38
2022-12-26T05:11:37.030Z,12.38
2022-12-26T05:16:56.520Z,12.38
2022-12-26T05:27:35.047Z,12.38
2022-12-26T05:32:53.809Z,12.38
2022-12-26T05:38:12.625Z,12.38
2022-12-26T05:43:40.891Z,12.38
2022-12-26T05:48:51.675Z,12.38
2022-12-26T05:54:10.813Z,12.38
2022-12-26T05:59:30.459Z,12.38
2022-12-26T06:04:49.286Z,12.38
2022-12-26T06:10:08.209Z,12.37
2022-12-26T06:15:27.467Z,12.37
2022-12-26T06:26:06.160Z,12.37
2022-12-26T06:31:25.330Z,12.37
2022-12-26T06:36:45.130Z,12.37
2022-12-26T06:42:04.312Z,12.37
2022-12-26T06:52:42.381Z,12.36
2022-12-26T06:58:01.589Z,12.37
2022-12-26T07:03:21.148Z,12.37
2022-12-26T07:08:39.988Z,12.36
2022-12-26T07:13:59.583Z,12.37
2022-12-26T07:19:19.137Z,12.36
2022-12-26T07:24:37.724Z,12.36
2022-12-26T07:29:57.052Z,12.36
2022-12-26T07:35:15.785Z,12.36
2022-12-26T07:40:35.387Z,12.35
2022-12-26T07:45:54.708Z,12.36
2022-12-26T07:51:13.564Z,12.36
2022-12-26T07:56:32.769Z,12.36
2022-12-26T08:07:11.154Z,12.37
2022-12-26T08:12:30.372Z,12.36
2022-12-26T08:17:49.125Z,12.38
2022-12-26T08:23:08.502Z,12.36
2022-12-26T08:28:27.538Z,12.36
2022-12-26T08:33:47.229Z,12.38
2022-12-26T08:39:06.035Z,12.42
2022-12-26T08:49:44.706Z,12.48
2022-12-26T08:55:03.897Z,12.41
2022-12-26T09:00:22.803Z,12.4
2022-12-26T09:05:41.091Z,12.4
2022-12-26T09:11:00.431Z,12.42
2022-12-26T09:22:04.075Z,12.4
2022-12-26T09:27:22.971Z,12.38
2022-12-26T09:32:42.025Z,12.38
2022-12-26T09:38:00.730Z,12.39
2022-12-26T09:43:19.638Z,12.38
2022-12-26T09:48:38.747Z,12.38
2022-12-26T09:53:58.181Z,12.38
2022-12-26T10:04:37.524Z,12.38
2022-12-26T10:09:56.237Z,12.38
2022-12-26T10:15:15.486Z,12.39
2022-12-26T10:25:53.175Z,12.4
2022-12-26T10:31:12.259Z,12.42
2022-12-26T10:41:50.059Z,12.4
2022-12-26T10:47:08.979Z,12.4
2022-12-26T10:52:27.729Z,12.4
2022-12-26T10:57:46.987Z,12.4
2022-12-26T11:03:06.253Z,12.4
2022-12-26T11:08:25.200Z,12.39
2022-12-26T11:13:44.056Z,12.39
2022-12-26T11:24:22.930Z,12.4
2022-12-26T11:29:42.621Z,12.43
2022-12-26T11:35:02.029Z,12.45
2022-12-26T11:40:20.840Z,12.47
2022-12-26T11:45:40.134Z,12.47
2022-12-26T11:50:59.383Z,12.48
2022-12-26T11:56:18.793Z,12.48
2022-12-26T12:06:57.293Z,12.51
2022-12-26T12:12:16.755Z,12.49
2022-12-26T12:17:35.715Z,12.52
2022-12-26T12:22:55.354Z,12.5
2022-12-26T12:28:14.797Z,12.47
2022-12-26T12:33:34.244Z,12.44
2022-12-26T12:38:56.428Z,12.45
2022-12-26T12:44:12.773Z,12.47
2022-12-26T12:49:32.086Z,12.46
2022-12-26T12:54:51.775Z,12.42
2022-12-26T13:05:31.037Z,12.41
2022-12-26T13:10:50.251Z,12.42
2022-12-26T13:16:09.711Z,12.4
2022-12-26T13:21:28.871Z,12.4
2022-12-26T13:26:47.867Z,12.38
2022-12-26T13:32:07.655Z,12.39
2022-12-26T13:37:26.912Z,12.38
2022-12-26T13:48:05.540Z,12.36
2022-12-26T13:53:24.285Z,12.36
2022-12-26T13:58:44.032Z,12.36
2022-12-26T14:04:03.174Z,12.36
2022-12-26T14:09:21.794Z,12.36
2022-12-26T14:14:40.819Z,12.35
2022-12-26T14:20:00.034Z,12.35
2022-12-26T14:25:18.912Z,12.35
2022-12-26T14:30:37.878Z,12.34
2022-12-26T14:35:57.324Z,12.34
2022-12-26T14:41:16.344Z,12.34
2022-12-26T14:46:36.454Z,12.34
2022-12-26T14:51:55.678Z,12.34
2022-12-26T14:57:15.020Z,12.33
2022-12-26T15:02:32.912Z,12.33
2022-12-26T15:07:52.048Z,12.33
2022-12-26T15:13:10.929Z,12.33
2022-12-26T15:18:30.244Z,12.33
2022-12-26T15:23:49.993Z,12.34
2022-12-26T15:29:09.332Z,12.32
2022-12-26T15:34:28.913Z,12.33
2022-12-26T15:39:48.645Z,12.32
2022-12-26T15:45:08.266Z,12.32
2022-12-26T15:50:27.002Z,12.32
2022-12-26T15:55:46.434Z,12.32
2022-12-26T16:01:05.366Z,12.32
2022-12-26T16:06:24.542Z,12.32
2022-12-26T16:11:43.985Z,12.32
2022-12-26T16:17:02.844Z,12.32
2022-12-26T16:22:21.996Z,12.32
2022-12-26T16:27:41.017Z,12.32
2022-12-26T16:38:19.565Z,12.32
2022-12-26T16:43:38.854Z,12.32
2022-12-26T16:48:57.714Z,12.32
2022-12-26T16:54:16.779Z,12.32
2022-12-26T16:59:36.567Z,12.31
2022-12-26T17:04:58.345Z,12.31
2022-12-26T17:10:15.024Z,12.31
2022-12-26T17:15:34.687Z,12.31
2022-12-26T17:20:54.226Z,12.31
2022-12-26T17:26:13.043Z,12.31
2022-12-26T17:31:32.453Z,12.3
2022-12-26T17:37:19.228Z,12.3
2022-12-26T17:42:10.588Z,12.3
2022-12-26T17:47:29.560Z,12.31
2022-12-26T17:52:49.678Z,12.3
2022-12-26T17:58:07.966Z,12.3
2022-12-26T18:03:27.019Z,12.3
2022-12-26T18:08:45.973Z,12.3
2022-12-26T18:14:04.930Z,12.3
2022-12-26T18:19:24.522Z,12.3
2022-12-26T18:30:02.725Z,12.3
2022-12-26T18:35:21.799Z,12.3
2022-12-26T18:40:40.857Z,12.29
2022-12-26T18:46:00.137Z,12.29
2022-12-26T18:51:19.245Z,12.3
2022-12-26T18:56:38.098Z,12.29
2022-12-26T19:01:57.456Z,12.29
2022-12-26T19:12:35.553Z,12.28
2022-12-26T19:17:54.755Z,12.29
2022-12-26T19:23:13.822Z,12.28
2022-12-26T19:28:32.685Z,12.28
2022-12-26T19:33:52.407Z,12.28
2022-12-26T19:39:11.703Z,12.28
2022-12-26T19:44:31.252Z,12.28
2022-12-26T19:55:09.452Z,12.28
2022-12-26T20:00:28.594Z,12.28
2022-12-26T20:05:48.353Z,12.28
2022-12-26T20:11:07.228Z,12.28
2022-12-26T20:17:02.966Z,12.28
2022-12-26T20:21:45.543Z,12.27
2022-12-26T20:27:04.388Z,12.27
2022-12-26T20:32:23.882Z,12.28
2022-12-26T20:37:42.879Z,12.26
2022-12-26T20:43:02.037Z,12.27
2022-12-26T20:48:21.378Z,12.26
2022-12-26T20:53:40.468Z,12.26
2022-12-26T20:58:59.983Z,12.27
2022-12-26T21:04:18.839Z,12.27
2022-12-26T21:09:42.572Z,12.26
2022-12-26T21:14:57.929Z,12.26
2022-12-26T21:20:16.423Z,12.27
2022-12-26T21:25:35.724Z,12.26
2022-12-26T21:30:55.176Z,12.27
2022-12-26T21:36:14.404Z,12.26
2022-12-26T21:41:33.252Z,12.26
2022-12-26T21:46:52.468Z,12.26
2022-12-26T21:52:11.684Z,12.26
2022-12-26T21:57:31.162Z,12.25
2022-12-26T22:02:50.789Z,12.25
2022-12-26T22:08:10.339Z,12.26
2022-12-26T22:18:48.271Z,12.25
2022-12-26T22:24:07.651Z,12.25
2022-12-26T22:29:26.639Z,12.25
2022-12-26T22:34:46.160Z,12.25
2022-12-26T22:40:05.149Z,12.25
2022-12-26T22:45:24.411Z,12.25
2022-12-26T22:50:44.164Z,12.25
2022-12-26T23:01:22.998Z,12.24
2022-12-26T23:06:42.735Z,12.24
2022-12-26T23:12:01.404Z,12.24
2022-12-26T23:17:20.325Z,12.24
2022-12-26T23:22:39.313Z,12.24
2022-12-26T23:27:58.716Z,12.24
2022-12-26T23:33:18.129Z,12.24
2022-12-26T23:43:56.923Z,12.23
2022-12-26T23:49:16.457Z,12.23
2022-12-26T23:54:36.038Z,12.23
2022-12-26T23:59:55.200Z,12.23
